createdAt,value
2019-02-03T00:00:22.351Z,34.43
2019-02-03T00:02:53.404Z,34.00
2019-02-03T00:05:22.896Z,34.45
2019-02-03T00:07:52.815Z,31.97
2019-02-03T00:10:23.644Z,39.70
2019-02-03T00:12:53.126Z,34.92
2019-02-03T00:15:24.028Z,37.20
2019-02-03T00:17:53.517Z,35.08
2019-02-03T00:20:24.838Z,50.88
2019-02-03T00:22:54.326Z,56.92
2019-02-03T00:25:23.779Z,38.42
2019-02-03T00:27:53.199Z,39.38
2019-02-03T00:30:24.019Z,37.40
2019-02-03T00:32:53.908Z,57.90
2019-02-03T00:35:23.433Z,55.00
2019-02-03T00:37:52.986Z,39.30
2019-02-03T00:40:24.078Z,55.95
2019-02-03T00:42:53.639Z,59.50
2019-02-03T00:45:23.090Z,69.62
2019-02-03T00:47:52.506Z,53.02
2019-02-03T00:50:23.328Z,68.07
2019-02-03T00:52:52.755Z,41.50
2019-02-03T00:55:23.577Z,41.23
2019-02-03T00:57:52.991Z,37.75
2019-02-03T01:00:23.774Z,53.48
2019-02-03T01:02:53.266Z,55.65
2019-02-03T01:05:22.863Z,41.37
2019-02-03T01:07:52.353Z,50.03
2019-02-03T01:10:23.019Z,48.10
2019-02-03T01:12:52.514Z,37.48
2019-02-03T01:15:23.231Z,35.80
2019-02-03T01:17:52.717Z,53.75
2019-02-03T01:20:24.586Z,46.15
2019-02-03T01:22:54.035Z,42.33
2019-02-03T01:25:25.028Z,52.15
2019-02-03T01:27:54.447Z,50.23
2019-02-03T01:30:25.166Z,41.85
2019-02-03T01:32:54.586Z,57.50
2019-02-03T01:35:24.113Z,69.30
2019-02-03T01:37:53.922Z,40.12
2019-02-03T01:40:24.665Z,53.40
2019-02-03T01:42:54.158Z,56.55
2019-02-03T01:45:23.875Z,40.23
2019-02-03T01:47:53.304Z,56.55
2019-02-03T01:50:22.786Z,48.25
2019-02-03T01:52:52.277Z,57.73
2019-02-03T01:55:26.371Z,54.88
2019-02-03T01:57:55.971Z,39.42
2019-02-03T02:00:28.930Z,45.50
2019-02-03T02:02:58.967Z,47.50
2019-02-03T02:05:28.573Z,40.95
2019-02-03T02:07:58.091Z,52.33
2019-02-03T02:10:28.598Z,41.68
2019-02-03T02:12:58.127Z,51.08
2019-02-03T02:15:27.623Z,53.05
2019-02-03T02:17:57.143Z,39.03
2019-02-03T02:20:29.082Z,47.75
2019-02-03T02:22:58.584Z,36.28
2019-02-03T02:25:29.773Z,41.10
2019-02-03T02:27:59.257Z,37.67
2019-02-03T02:30:30.406Z,40.08
2019-02-03T02:32:59.934Z,48.98
2019-02-03T02:35:29.472Z,45.08
2019-02-03T02:38:06.398Z,41.85
2019-02-03T02:40:31.492Z,42.67
2019-02-03T02:43:01.106Z,47.53
2019-02-03T02:45:30.599Z,46.55
2019-02-03T02:48:00.157Z,43.25
2019-02-03T02:50:39.471Z,35.33
2019-02-03T02:53:08.931Z,46.35
2019-02-03T02:55:38.422Z,37.63
2019-02-03T02:58:07.982Z,40.55
2019-02-03T03:00:37.440Z,39.38
2019-02-03T03:03:06.939Z,42.93
2019-02-03T03:05:36.483Z,35.10
2019-02-03T03:08:18.155Z,36.03
2019-02-03T03:10:37.483Z,44.67
2019-02-03T03:13:06.963Z,44.08
2019-02-03T03:15:37.691Z,34.78
2019-02-03T03:18:07.180Z,37.08
2019-02-03T03:20:37.134Z,42.90
2019-02-03T03:23:06.631Z,47.03
2019-02-03T03:25:36.086Z,47.33
2019-02-03T03:28:05.505Z,42.20
2019-02-03T03:30:36.476Z,45.38
2019-02-03T03:33:05.982Z,45.05
2019-02-03T03:35:37.921Z,43.73
2019-02-03T03:38:07.308Z,36.15
2019-02-03T03:40:38.137Z,39.83
2019-02-03T03:43:07.706Z,39.48
2019-02-03T03:45:37.174Z,33.10
2019-02-03T03:48:06.672Z,40.95
2019-02-03T03:50:36.390Z,39.48
2019-02-03T03:53:05.814Z,42.60
2019-02-03T03:55:35.340Z,34.35
2019-02-03T03:58:05.220Z,42.43
2019-02-03T04:00:35.044Z,37.25
2019-02-03T04:03:04.523Z,40.48
2019-02-03T04:05:34.035Z,39.58
2019-02-03T04:08:03.630Z,39.23
2019-02-03T04:10:33.079Z,43.78
2019-02-03T04:13:02.500Z,40.38
2019-02-03T04:15:33.525Z,39.65
2019-02-03T04:18:02.970Z,39.75
2019-02-03T04:20:32.497Z,40.95
2019-02-03T04:23:01.908Z,35.90
2019-02-03T04:25:32.632Z,41.35
2019-02-03T04:28:02.111Z,41.28
2019-02-03T04:30:32.831Z,41.80
2019-02-03T04:33:02.282Z,37.05
2019-02-03T04:35:33.027Z,42.95
2019-02-03T04:38:02.551Z,37.20
2019-02-03T04:40:34.136Z,40.40
2019-02-03T04:43:03.763Z,41.63
2019-02-03T04:45:33.356Z,36.40
2019-02-03T04:48:02.862Z,39.03
2019-02-03T04:50:34.884Z,38.45
2019-02-03T04:53:03.546Z,37.67
2019-02-03T04:55:34.236Z,35.20
2019-02-03T04:58:03.685Z,32.80
2019-02-03T05:00:34.677Z,37.55
2019-02-03T05:03:04.194Z,36.33
2019-02-03T05:05:35.084Z,32.45
2019-02-03T05:08:04.625Z,32.78
2019-02-03T05:10:35.317Z,38.95
2019-02-03T05:13:04.762Z,32.20
2019-02-03T05:15:35.540Z,34.03
2019-02-03T05:18:05.058Z,32.65
2019-02-03T05:20:35.854Z,37.30
2019-02-03T05:23:05.311Z,38.42
2019-02-03T05:25:34.728Z,33.42
2019-02-03T05:28:04.188Z,38.38
2019-02-03T05:30:34.911Z,38.55
2019-02-03T05:33:04.661Z,33.90
2019-02-03T05:35:35.542Z,36.83
2019-02-03T05:38:04.991Z,33.98
2019-02-03T05:40:35.872Z,31.77
2019-02-03T05:43:05.325Z,35.50
2019-02-03T05:45:35.203Z,35.08
2019-02-03T05:48:05.178Z,28.40
2019-02-03T05:50:36.067Z,27.30
2019-02-03T05:53:05.531Z,31.12
2019-02-03T05:55:34.955Z,27.77
2019-02-03T05:58:04.376Z,27.95
2019-02-03T06:00:35.463Z,26.90
2019-02-03T06:03:05.120Z,26.10
2019-02-03T06:05:36.139Z,26.55
2019-02-03T06:08:05.821Z,24.32
2019-02-03T06:10:36.779Z,23.52
2019-02-03T06:13:06.195Z,26.33
2019-02-03T06:15:35.652Z,24.30
2019-02-03T06:18:05.135Z,22.27
2019-02-03T06:20:35.855Z,24.37
2019-02-03T06:23:05.282Z,22.45
2019-02-03T06:25:36.294Z,24.10
2019-02-03T06:28:05.706Z,22.85
2019-02-03T06:30:54.862Z,23.15
2019-02-03T06:33:24.349Z,24.52
2019-02-03T06:35:53.868Z,23.87
2019-02-03T06:38:23.354Z,26.00
2019-02-03T06:40:52.862Z,28.52
2019-02-03T06:43:22.275Z,27.15
2019-02-03T06:45:54.826Z,27.35
2019-02-03T06:48:26.079Z,27.77
2019-02-03T06:50:55.522Z,27.90
2019-02-03T06:53:24.934Z,26.60
2019-02-03T06:55:55.656Z,25.55
2019-02-03T06:58:25.073Z,28.57
2019-02-03T07:00:54.828Z,29.37
2019-02-03T07:03:24.227Z,29.00
2019-02-03T07:05:53.672Z,25.68
2019-02-03T07:08:23.083Z,27.52
2019-02-03T07:10:52.532Z,27.98
2019-02-03T07:13:21.959Z,24.65
2019-02-03T07:15:52.868Z,22.87
2019-02-03T07:18:22.289Z,24.95
2019-02-03T07:20:51.739Z,23.45
2019-02-03T07:23:21.158Z,20.27
2019-02-03T07:25:52.078Z,22.17
2019-02-03T07:28:21.702Z,22.55
2019-02-03T07:30:51.219Z,23.45
2019-02-03T07:33:20.710Z,20.48
2019-02-03T07:35:51.416Z,20.60
2019-02-03T07:38:20.828Z,20.82
2019-02-03T07:40:50.281Z,21.07
2019-02-03T07:43:19.696Z,23.70
2019-02-03T07:45:49.219Z,19.30
2019-02-03T07:48:18.637Z,19.50
2019-02-03T07:50:48.115Z,22.30
2019-02-03T07:53:17.567Z,21.82
2019-02-03T07:55:47.307Z,23.92
2019-02-03T07:58:16.771Z,21.77
2019-02-03T08:00:47.446Z,24.30
2019-02-03T08:03:16.968Z,23.10
2019-02-03T08:05:47.751Z,24.25
2019-02-03T08:08:17.268Z,25.80
2019-02-03T08:10:46.689Z,24.00
2019-02-03T08:13:16.611Z,26.17
2019-02-03T08:15:47.899Z,26.73
2019-02-03T08:18:17.420Z,25.45
2019-02-03T08:20:48.304Z,25.30
2019-02-03T08:23:17.831Z,25.95
2019-02-03T08:25:48.626Z,24.37
2019-02-03T08:28:18.150Z,26.20
2019-02-03T08:30:47.623Z,24.37
2019-02-03T08:33:17.137Z,25.50
2019-02-03T08:35:47.126Z,23.07
2019-02-03T08:38:17.343Z,25.08
2019-02-03T08:40:46.826Z,26.17
2019-02-03T08:43:16.738Z,22.42
2019-02-03T08:45:47.520Z,26.75
2019-02-03T08:48:17.030Z,23.90
2019-02-03T08:50:48.115Z,25.32
2019-02-03T08:53:17.567Z,24.77
2019-02-03T08:55:48.354Z,23.62
2019-02-03T08:58:17.797Z,23.90
2019-02-03T09:00:47.211Z,25.10
2019-02-03T09:03:17.688Z,25.77
2019-02-03T09:05:48.531Z,25.00
2019-02-03T09:08:17.984Z,24.77
2019-02-03T09:10:48.797Z,25.82
2019-02-03T09:13:19.855Z,27.50
2019-02-03T09:15:51.911Z,24.63
2019-02-03T09:18:20.844Z,27.55
2019-02-03T09:20:50.258Z,28.90
2019-02-03T09:23:19.694Z,26.33
2019-02-03T09:25:50.606Z,26.80
2019-02-03T09:28:20.432Z,27.40
2019-02-03T09:30:51.163Z,28.32
2019-02-03T09:33:20.575Z,30.25
2019-02-03T09:35:50.037Z,29.72
2019-02-03T09:38:19.459Z,27.17
2019-02-03T09:40:59.820Z,28.90
2019-02-03T09:43:21.490Z,29.77
2019-02-03T09:45:51.009Z,29.72
2019-02-03T09:48:20.427Z,30.25
2019-02-03T09:50:49.867Z,29.67
2019-02-03T09:53:19.286Z,30.10
2019-02-03T09:55:49.144Z,34.80
2019-02-03T09:58:18.632Z,30.02
2019-02-03T10:00:49.549Z,33.28
2019-02-03T10:03:19.031Z,32.63
2019-02-03T10:05:48.548Z,29.37
2019-02-03T10:08:17.957Z,28.17
2019-02-03T10:10:48.766Z,27.05
2019-02-03T10:13:18.248Z,26.45
2019-02-03T10:15:47.774Z,27.77
2019-02-03T10:18:17.322Z,29.42
2019-02-03T10:20:46.883Z,27.48
2019-02-03T10:23:16.594Z,30.25
2019-02-03T10:25:46.098Z,30.62
2019-02-03T10:28:15.674Z,30.60
2019-02-03T10:30:46.399Z,30.50
2019-02-03T10:33:15.812Z,28.65
2019-02-03T10:35:46.624Z,32.45
2019-02-03T10:38:16.111Z,36.53
2019-02-03T10:40:45.685Z,30.30
2019-02-03T10:43:15.105Z,34.90
2019-02-03T10:45:44.641Z,32.73
2019-02-03T10:48:14.719Z,32.42
2019-02-03T10:50:45.438Z,31.23
2019-02-03T10:53:15.320Z,31.20
2019-02-03T10:55:44.839Z,33.23
2019-02-03T10:58:14.244Z,27.75
2019-02-03T11:00:45.075Z,30.92
2019-02-03T11:03:14.959Z,31.07
2019-02-03T11:05:51.699Z,32.30
2019-02-03T11:08:21.116Z,33.05
2019-02-03T11:10:51.848Z,30.15
2019-02-03T11:13:21.410Z,26.90
2019-02-03T11:15:52.195Z,30.70
2019-02-03T11:18:21.876Z,28.70
2019-02-03T11:20:52.606Z,28.95
2019-02-03T11:23:22.130Z,27.40
2019-02-03T11:25:52.829Z,31.50
2019-02-03T11:28:22.274Z,29.95
2019-02-03T11:30:53.091Z,31.48
2019-02-03T11:33:22.543Z,26.82
2019-02-03T11:35:53.318Z,28.65
2019-02-03T11:38:22.832Z,27.93
2019-02-03T11:40:53.751Z,28.80
2019-02-03T11:43:23.468Z,24.25
2019-02-03T11:45:54.255Z,26.48
2019-02-03T11:48:23.707Z,27.25
2019-02-03T11:50:53.199Z,26.42
2019-02-03T11:53:25.065Z,27.93
2019-02-03T11:55:54.967Z,26.42
2019-02-03T11:58:24.480Z,24.47
2019-02-03T12:00:55.890Z,26.23
2019-02-03T12:03:25.407Z,28.70
2019-02-03T12:05:54.898Z,26.37
2019-02-03T12:08:24.455Z,26.07
2019-02-03T12:10:55.232Z,23.45
2019-02-03T12:13:24.671Z,24.35
2019-02-03T12:15:55.451Z,24.90
2019-02-03T12:18:24.970Z,27.82
2019-02-03T12:20:55.669Z,26.45
2019-02-03T12:23:25.109Z,25.55
2019-02-03T12:25:54.590Z,23.40
2019-02-03T12:28:24.062Z,23.35
2019-02-03T12:30:54.845Z,25.52
2019-02-03T12:33:24.285Z,27.65
2019-02-03T12:35:53.815Z,28.15
2019-02-03T12:38:23.558Z,27.10
2019-02-03T12:40:54.364Z,22.67
2019-02-03T12:43:23.891Z,25.92
2019-02-03T12:45:53.376Z,26.73
2019-02-03T12:48:22.872Z,26.05
2019-02-03T12:50:52.683Z,30.20
2019-02-03T12:53:22.088Z,25.43
2019-02-03T12:55:52.815Z,28.45
2019-02-03T12:58:22.228Z,26.60
2019-02-03T13:00:53.032Z,30.45
2019-02-03T13:03:25.239Z,32.33
2019-02-03T13:05:55.679Z,28.30
2019-02-03T13:08:25.163Z,26.70
2019-02-03T13:10:55.892Z,26.05
2019-02-03T13:13:25.374Z,29.63
2019-02-03T13:15:54.824Z,24.32
2019-02-03T13:18:24.296Z,27.75
2019-02-03T13:20:53.745Z,25.57
2019-02-03T13:23:23.148Z,28.38
2019-02-03T13:25:52.600Z,24.77
2019-02-03T13:28:22.000Z,24.40
2019-02-03T13:30:51.914Z,25.43
2019-02-03T13:33:22.009Z,25.00
2019-02-03T13:35:53.011Z,26.37
2019-02-03T13:38:22.424Z,25.20
2019-02-03T13:40:51.863Z,27.42
2019-02-03T13:43:22.902Z,23.92
2019-02-03T13:45:53.820Z,22.77
2019-02-03T13:48:23.222Z,22.80
2019-02-03T13:50:54.944Z,22.93
2019-02-03T13:53:24.366Z,25.05
2019-02-03T13:55:54.187Z,23.95
2019-02-03T13:58:23.667Z,24.77
2019-02-03T14:00:53.111Z,24.07
2019-02-03T14:03:22.594Z,22.55
2019-02-03T14:05:53.506Z,23.67
2019-02-03T14:08:23.131Z,21.33
2019-02-03T14:10:53.841Z,23.12
2019-02-03T14:13:23.355Z,22.25
2019-02-03T14:15:54.139Z,22.45
2019-02-03T14:18:23.616Z,23.27
2019-02-03T14:20:53.060Z,21.30
2019-02-03T14:23:22.564Z,21.07
2019-02-03T14:25:52.019Z,19.48
2019-02-03T14:28:21.423Z,19.35
2019-02-03T14:30:51.420Z,19.17
2019-02-03T14:33:20.935Z,18.48
2019-02-03T14:35:51.618Z,18.57
2019-02-03T14:38:21.122Z,19.05
2019-02-03T14:40:50.603Z,18.30
2019-02-03T14:43:20.055Z,15.98
2019-02-03T14:45:50.735Z,17.17
2019-02-03T14:48:20.575Z,18.48
2019-02-03T14:50:50.058Z,15.25
2019-02-03T14:53:19.495Z,15.53
2019-02-03T14:55:51.810Z,17.17
2019-02-03T14:58:20.108Z,18.35
2019-02-03T15:00:49.582Z,16.82
2019-02-03T15:03:20.179Z,16.73
2019-02-03T15:05:50.966Z,16.93
2019-02-03T15:08:20.483Z,15.78
2019-02-03T15:10:51.262Z,15.80
2019-02-03T15:13:20.724Z,15.15
2019-02-03T15:15:51.603Z,15.53
2019-02-03T15:18:21.055Z,14.33
2019-02-03T15:20:51.840Z,13.88
2019-02-03T15:23:21.285Z,13.18
2019-02-03T15:25:52.081Z,13.70
2019-02-03T15:28:21.600Z,14.87
2019-02-03T15:30:52.388Z,14.03
2019-02-03T15:33:21.830Z,15.70
2019-02-03T15:35:51.319Z,14.40
2019-02-03T15:38:20.845Z,13.50
2019-02-03T15:40:51.535Z,13.75
2019-02-03T15:43:25.722Z,14.98
2019-02-03T15:45:53.288Z,14.30
2019-02-03T15:48:22.719Z,14.20
2019-02-03T15:50:52.202Z,13.20
2019-02-03T15:53:21.719Z,14.78
2019-02-03T15:55:51.318Z,14.20
2019-02-03T15:58:20.897Z,14.93
2019-02-03T16:00:52.414Z,16.32
2019-02-03T16:03:21.938Z,14.93
2019-02-03T16:05:52.921Z,14.70
2019-02-03T16:08:22.477Z,18.82
2019-02-03T16:10:51.887Z,17.48
2019-02-03T16:13:21.379Z,17.37
2019-02-03T16:15:52.199Z,16.05
2019-02-03T16:18:21.679Z,14.50
2019-02-03T16:20:52.399Z,14.83
2019-02-03T16:23:21.888Z,14.85
2019-02-03T16:25:52.603Z,17.82
2019-02-03T16:28:22.010Z,14.40
2019-02-03T16:30:52.930Z,19.15
2019-02-03T16:33:22.412Z,15.45
2019-02-03T16:35:53.128Z,17.35
2019-02-03T16:38:23.428Z,16.40
2019-02-03T16:40:54.423Z,14.18
2019-02-03T16:43:23.914Z,14.60
2019-02-03T16:45:54.835Z,17.77
2019-02-03T16:48:24.265Z,18.90
2019-02-03T16:50:53.707Z,17.82
2019-02-03T16:53:23.126Z,15.03
2019-02-03T16:55:53.935Z,19.82
2019-02-03T16:58:23.347Z,14.68
2019-02-03T17:00:54.064Z,13.88
2019-02-03T17:03:23.475Z,15.08
2019-02-03T17:05:53.018Z,14.95
2019-02-03T17:08:22.547Z,17.70
2019-02-03T17:10:52.069Z,13.22
2019-02-03T17:13:21.921Z,18.73
2019-02-03T17:15:53.278Z,17.55
2019-02-03T17:18:22.863Z,18.48
2019-02-03T17:21:01.357Z,16.00
2019-02-03T17:23:25.181Z,17.20
2019-02-03T17:26:02.153Z,19.42
2019-02-03T17:28:31.639Z,21.27
2019-02-03T17:31:01.145Z,23.00
2019-02-03T17:33:30.695Z,20.70
2019-02-03T17:36:01.413Z,20.48
2019-02-03T17:38:31.401Z,19.35
2019-02-03T17:41:02.225Z,18.37
2019-02-03T17:43:31.715Z,19.52
2019-02-03T17:46:01.239Z,15.20
2019-02-03T17:48:30.835Z,17.73
2019-02-03T17:51:00.347Z,16.15
2019-02-03T17:53:29.831Z,17.80
2019-02-03T17:55:59.358Z,19.23
2019-02-03T17:58:28.900Z,18.32
2019-02-03T18:01:06.119Z,16.60
2019-02-03T18:03:35.535Z,19.12
2019-02-03T18:06:05.062Z,17.15
2019-02-03T18:08:34.554Z,19.52
2019-02-03T18:11:04.043Z,20.45
2019-02-03T18:13:33.555Z,18.45
2019-02-03T18:16:04.534Z,18.90
2019-02-03T18:18:34.659Z,17.48
2019-02-03T18:21:05.455Z,16.62
2019-02-03T18:23:35.043Z,17.52
2019-02-03T18:26:04.461Z,17.75
2019-02-03T18:28:34.044Z,15.00
2019-02-03T18:31:05.317Z,15.63
2019-02-03T18:33:34.846Z,14.58
2019-02-03T18:36:05.531Z,15.58
2019-02-03T18:38:35.050Z,15.63
2019-02-03T18:41:05.843Z,16.65
2019-02-03T18:43:35.291Z,15.05
2019-02-03T18:46:06.182Z,14.50
2019-02-03T18:48:37.049Z,14.35
2019-02-03T18:51:07.929Z,13.15
2019-02-03T18:53:37.375Z,12.82
2019-02-03T18:56:08.055Z,13.32
2019-02-03T18:58:37.776Z,14.28
2019-02-03T19:01:07.259Z,13.93
2019-02-03T19:03:36.784Z,10.88
2019-02-03T19:06:07.640Z,13.25
2019-02-03T19:08:37.230Z,9.70
2019-02-03T19:11:08.304Z,9.53
2019-02-03T19:13:37.876Z,8.35
2019-02-03T19:16:08.562Z,8.35
2019-02-03T19:18:38.082Z,10.38
2019-02-03T19:21:07.567Z,12.10
2019-02-03T19:23:37.058Z,9.33
2019-02-03T19:26:07.841Z,9.60
2019-02-03T19:28:37.344Z,8.80
2019-02-03T19:31:08.151Z,9.60
2019-02-03T19:33:37.638Z,10.35
2019-02-03T19:36:07.151Z,9.78
2019-02-03T19:38:36.827Z,9.10
2019-02-03T19:41:07.650Z,8.90
2019-02-03T19:43:37.056Z,8.10
2019-02-03T19:46:08.346Z,8.20
2019-02-03T19:48:38.065Z,8.10
2019-02-03T19:51:09.440Z,9.78
2019-02-03T19:53:39.057Z,9.85
2019-02-03T19:56:09.840Z,11.00
2019-02-03T19:58:39.274Z,10.58
2019-02-03T20:01:10.397Z,9.25
2019-02-03T20:03:39.940Z,9.38
2019-02-03T20:06:09.556Z,9.05
2019-02-03T20:08:39.100Z,8.80
2019-02-03T20:11:08.626Z,8.65
2019-02-03T20:13:38.303Z,9.65
2019-02-03T20:16:07.955Z,10.08
2019-02-03T20:18:37.623Z,10.13
2019-02-03T20:21:07.333Z,11.53
2019-02-03T20:23:36.792Z,11.68
2019-02-03T20:26:06.304Z,11.20
2019-02-03T20:28:35.854Z,9.78
2019-02-03T20:31:06.727Z,11.43
2019-02-03T20:33:36.415Z,11.12
2019-02-03T20:36:07.304Z,10.53
2019-02-03T20:38:36.888Z,11.00
2019-02-03T20:41:07.904Z,12.10
2019-02-03T20:43:37.617Z,12.25
2019-02-03T20:46:07.631Z,10.85
2019-02-03T20:48:37.472Z,13.38
2019-02-03T20:51:07.486Z,10.68
2019-02-03T20:53:36.962Z,12.37
2019-02-03T20:56:06.546Z,10.13
2019-02-03T20:58:36.259Z,11.20
2019-02-03T21:01:06.006Z,11.30
2019-02-03T21:03:35.857Z,11.05
2019-02-03T21:06:05.385Z,12.35
2019-02-03T21:08:34.904Z,10.65
2019-02-03T21:11:05.687Z,12.28
2019-02-03T21:13:35.707Z,11.68
2019-02-03T21:16:06.488Z,11.50
2019-02-03T21:18:36.015Z,11.22
2019-02-03T21:21:06.903Z,10.85
2019-02-03T21:23:38.535Z,10.25
2019-02-03T21:26:15.874Z,10.35
2019-02-03T21:28:42.554Z,9.85
2019-02-03T21:31:10.903Z,10.18
2019-02-03T21:33:40.410Z,11.00
2019-02-03T21:36:09.819Z,10.10
2019-02-03T21:38:39.331Z,10.53
2019-02-03T21:41:08.930Z,9.55
2019-02-03T21:43:38.436Z,8.68
2019-02-03T21:46:09.115Z,10.38
2019-02-03T21:48:38.633Z,9.63
2019-02-03T21:51:08.115Z,8.50
2019-02-03T21:53:37.936Z,9.73
2019-02-03T21:56:07.435Z,10.50
2019-02-03T21:58:36.952Z,10.00
2019-02-03T22:01:06.442Z,11.00
2019-02-03T22:03:35.979Z,12.03
2019-02-03T22:06:05.467Z,13.03
2019-02-03T22:08:34.959Z,11.15
2019-02-03T22:11:05.875Z,13.00
2019-02-03T22:13:35.291Z,10.93
2019-02-03T22:16:06.210Z,11.80
2019-02-03T22:18:35.691Z,10.63
2019-02-03T22:21:06.923Z,10.58
2019-02-03T22:23:36.339Z,9.53
2019-02-03T22:26:07.159Z,8.73
2019-02-03T22:28:36.963Z,8.80
2019-02-03T22:31:06.411Z,8.25
2019-02-03T22:33:36.194Z,8.90
2019-02-03T22:36:07.007Z,9.85
2019-02-03T22:38:36.427Z,8.48
2019-02-03T22:41:07.245Z,7.92
2019-02-03T22:43:36.718Z,9.15
2019-02-03T22:46:07.509Z,8.45
2019-02-03T22:48:37.564Z,9.43
2019-02-03T22:51:08.276Z,8.65
2019-02-03T22:53:37.684Z,9.00
2019-02-03T22:56:07.194Z,8.28
2019-02-03T22:58:37.547Z,7.50
2019-02-03T23:01:09.893Z,7.50
2019-02-03T23:03:42.411Z,7.78
2019-02-03T23:06:11.990Z,7.60
2019-02-03T23:08:41.643Z,8.35
2019-02-03T23:11:11.158Z,7.00
2019-02-03T23:13:40.638Z,7.60
2019-02-03T23:16:18.039Z,6.95
2019-02-03T23:18:41.231Z,6.80
2019-02-03T23:21:12.214Z,7.72
2019-02-03T23:23:41.682Z,7.30
2019-02-03T23:26:12.913Z,8.55
2019-02-03T23:28:42.388Z,8.58
2019-02-03T23:31:11.899Z,8.08
2019-02-03T23:33:41.368Z,7.50
2019-02-03T23:36:12.234Z,8.58
2019-02-03T23:38:42.307Z,8.13
2019-02-03T23:41:13.620Z,8.63
2019-02-03T23:43:44.558Z,7.60
2019-02-03T23:46:14.096Z,8.30
2019-02-03T23:48:43.571Z,6.83
2019-02-03T23:51:14.651Z,7.30
2019-02-03T23:53:44.103Z,6.70
2019-02-03T23:56:14.983Z,6.75
2019-02-03T23:58:44.494Z,7.65
